Time;durP1;ratioP1;P1;durP2;ratioP2;P2;SDS_P1;SDS_P2;PMS_P1;PMS_P2;Temp;Humidity;BMP_temperature;BMP_pressure;BME280_temperature;BME280_humidity;BME280_pressure;Samples;Min_cycle;Max_cycle;Signal;HPM_P1;HPM_P2
2022/06/27 00:01:50;;;;;;;19.27;3.78;;;;;;;;;;5027277;28;20033;-60
2022/06/27 00:04:17;;;;;;;22.63;4.00;;;;;;;;;;5028599;28;20176;-59
2022/06/27 00:06:44;;;;;;;15.60;3.08;;;;;;;;;;5027446;28;20033;-60
2022/06/27 00:09:10;;;;;;;15.98;3.40;;;;;;;;;;5027937;28;20395;-59
2022/06/27 00:11:37;;;;;;;16.77;4.05;;;;;;;;;;5026336;28;20419;-59
2022/06/27 00:14:04;;;;;;;14.85;4.10;;;;;;;;;;5029234;28;20125;-60
2022/06/27 00:16:31;;;;;;;16.55;3.92;;;;;;;;;;5027691;28;20026;-59
2022/06/27 00:18:58;;;;;;;18.33;3.92;;;;;;;;;;5028327;28;20029;-59
2022/06/27 00:21:25;;;;;;;17.77;3.63;;;;;;;;;;5027128;28;20052;-59
2022/06/27 00:23:52;;;;;;;13.73;3.90;;;;;;;;;;5029072;28;20026;-59
2022/06/27 00:26:20;;;;;;;13.55;3.35;;;;;;;;;;5028608;28;20109;-59
2022/06/27 00:28:47;;;;;;;17.92;3.70;;;;;;;;;;5040480;22;20041;-60
2022/06/27 00:31:14;;;;;;;20.48;4.00;;;;;;;;;;5027611;28;20105;-61
2022/06/27 00:33:41;;;;;;;21.20;4.07;;;;;;;;;;5027149;28;20398;-59
2022/06/27 00:36:08;;;;;;;13.45;3.65;;;;;;;;;;5041604;28;20067;-60
2022/06/27 00:38:35;;;;;;;19.48;4.45;;;;;;;;;;5047155;28;20033;-60
2022/06/27 00:41:03;;;;;;;12.13;4.05;;;;;;;;;;5041750;28;20021;-61
2022/06/27 00:43:30;;;;;;;24.65;4.32;;;;;;;;;;5047583;28;20509;-61
2022/06/27 00:45:57;;;;;;;16.63;3.55;;;;;;;;;;5048281;28;20017;-61
2022/06/27 00:48:24;;;;;;;16.75;3.80;;;;;;;;;;5040748;28;20021;-60
2022/06/27 00:50:51;;;;;;;16.52;4.60;;;;;;;;;;5037931;28;20025;-60
2022/06/27 00:53:18;;;;;;;18.70;4.43;;;;;;;;;;5038579;28;20108;-60
2022/06/27 00:55:45;;;;;;;16.80;4.45;;;;;;;;;;5040709;28;20544;-61
2022/06/27 00:58:12;;;;;;;17.55;4.38;;;;;;;;;;5038659;28;20060;-61
2022/06/27 01:00:39;;;;;;;18.27;4.60;;;;;;;;;;5039252;28;20025;-60
2022/06/27 01:03:06;;;;;;;14.75;4.50;;;;;;;;;;5035046;28;20506;-61
2022/06/27 01:05:34;;;;;;;16.85;4.93;;;;;;;;;;5042166;28;20071;-60
2022/06/27 01:08:01;;;;;;;19.83;5.03;;;;;;;;;;5041649;28;20025;-61
2022/06/27 01:10:28;;;;;;;18.92;5.20;;;;;;;;;;5049357;28;20124;-60
2022/06/27 01:12:55;;;;;;;22.05;5.95;;;;;;;;;;5053174;28;20059;-61
2022/06/27 01:15:22;;;;;;;20.00;5.03;;;;;;;;;;5053065;28;20526;-60
2022/06/27 01:17:49;;;;;;;18.27;5.45;;;;;;;;;;5053034;28;20517;-61
2022/06/27 01:20:16;;;;;;;16.55;5.15;;;;;;;;;;5053102;28;20025;-60
2022/06/27 01:22:43;;;;;;;17.35;5.03;;;;;;;;;;5052740;28;20025;-61
2022/06/27 01:25:11;;;;;;;16.80;4.85;;;;;;;;;;5052238;28;20025;-61
2022/06/27 01:27:38;;;;;;;15.73;5.28;;;;;;;;;;5052186;28;20028;-61
2022/06/27 01:30:06;;;;;;;14.07;4.15;;;;;;;;;;5052417;28;20551;-60
2022/06/27 01:32:33;;;;;;;21.35;5.25;;;;;;;;;;5052859;28;20036;-60
2022/06/27 01:35:00;;;;;;;15.43;5.57;;;;;;;;;;5039781;28;20491;-59
2022/06/27 01:37:27;;;;;;;17.58;5.78;;;;;;;;;;5032257;28;20026;-60
2022/06/27 01:39:54;;;;;;;21.55;4.63;;;;;;;;;;5037149;28;20029;-60
2022/06/27 01:42:22;;;;;;;17.67;5.43;;;;;;;;;;5047219;28;20367;-60
2022/06/27 01:44:49;;;;;;;19.52;5.57;;;;;;;;;;5045398;28;20021;-61
2022/06/27 01:47:16;;;;;;;20.55;4.60;;;;;;;;;;5041792;28;20390;-59
2022/06/27 01:49:43;;;;;;;13.98;4.50;;;;;;;;;;5046845;28;20076;-60
2022/06/27 01:52:13;;;;;;;21.73;5.05;;;;;;;;;;5042840;28;20041;-59
2022/06/27 01:54:40;;;;;;;21.77;4.40;;;;;;;;;;5036219;28;20108;-61
2022/06/27 01:57:08;;;;;;;16.92;4.38;;;;;;;;;;5033333;28;20109;-60
2022/06/27 01:59:35;;;;;;;17.58;4.88;;;;;;;;;;5024093;28;20558;-59
2022/06/27 02:02:03;;;;;;;21.35;4.85;;;;;;;;;;5031799;28;20511;-61
2022/06/27 02:04:31;;;;;;;15.48;4.53;;;;;;;;;;5040394;28;20713;-60
2022/06/27 02:06:59;;;;;;;13.68;3.75;;;;;;;;;;5052653;28;20541;-60
2022/06/27 02:09:26;;;;;;;16.13;4.25;;;;;;;;;;5051287;28;20148;-59
2022/06/27 02:11:55;;;;;;;18.27;4.78;;;;;;;;;;5052297;28;20021;-59
2022/06/27 02:14:22;;;;;;;21.23;4.25;;;;;;;;;;5052505;28;20029;-59
2022/06/27 02:16:49;;;;;;;18.38;4.45;;;;;;;;;;5054108;28;20032;-59
2022/06/27 02:19:17;;;;;;;14.55;3.63;;;;;;;;;;5054201;28;20021;-59
2022/06/27 02:21:45;;;;;;;16.33;4.65;;;;;;;;;;5053249;28;20052;-59
2022/06/27 02:24:12;;;;;;;18.15;4.53;;;;;;;;;;5053620;28;20056;-60
2022/06/27 02:26:40;;;;;;;17.27;4.38;;;;;;;;;;5053424;28;20028;-60
2022/06/27 02:29:07;;;;;;;16.65;3.67;;;;;;;;;;5053412;28;20063;-60
2022/06/27 02:31:34;;;;;;;16.15;5.15;;;;;;;;;;5053163;28;20025;-60
2022/06/27 02:34:01;;;;;;;20.58;4.32;;;;;;;;;;5053399;28;20108;-60
2022/06/27 02:36:31;;;;;;;17.35;4.35;;;;;;;;;;5053498;28;20083;-60
2022/06/27 02:38:59;;;;;;;19.65;4.45;;;;;;;;;;5053175;28;20036;-60
2022/06/27 02:41:28;;;;;;;22.25;4.40;;;;;;;;;;5053537;28;20025;-59
2022/06/27 02:43:59;;;;;;;17.95;3.67;;;;;;;;;;5052774;28;20021;-60
2022/06/27 02:46:26;;;;;;;18.25;4.10;;;;;;;;;;5052669;28;20025;-60
2022/06/27 02:48:54;;;;;;;13.88;3.58;;;;;;;;;;5053182;28;20039;-60
2022/06/27 02:51:22;;;;;;;13.70;3.28;;;;;;;;;;5052850;28;20039;-60
2022/06/27 02:54:02;;;;;;;15.68;3.85;;;;;;;;;;5052497;28;20402;-60
2022/06/27 02:56:30;;;;;;;14.13;3.63;;;;;;;;;;5052991;28;20498;-60
2022/06/27 02:59:29;;;;;;;12.52;3.15;;;;;;;;;;5052821;28;20025;-59
2022/06/27 03:01:57;;;;;;;9.02;3.20;;;;;;;;;;5009293;28;20116;-59
2022/06/27 03:04:24;;;;;;;11.40;3.80;;;;;;;;;;5052215;28;20082;-59
2022/06/27 03:06:51;;;;;;;10.90;3.17;;;;;;;;;;5053197;28;20433;-60
2022/06/27 03:09:19;;;;;;;10.07;3.03;;;;;;;;;;5052429;28;20032;-60
2022/06/27 03:11:49;;;;;;;9.73;2.90;;;;;;;;;;5052736;28;20032;-60
2022/06/27 03:14:16;;;;;;;14.80;3.33;;;;;;;;;;5052727;28;20036;-59
2022/06/27 03:16:43;;;;;;;11.27;2.63;;;;;;;;;;5052269;28;20048;-60
2022/06/27 03:19:10;;;;;;;12.57;3.03;;;;;;;;;;5052793;28;20552;-59
2022/06/27 03:21:37;;;;;;;8.30;2.70;;;;;;;;;;5052110;28;20110;-60
2022/06/27 03:24:04;;;;;;;9.70;2.70;;;;;;;;;;5053018;28;20098;-60
2022/06/27 03:26:31;;;;;;;10.35;2.88;;;;;;;;;;5052577;28;20100;-60
2022/06/27 03:28:58;;;;;;;8.18;2.92;;;;;;;;;;5051651;28;20049;-59
2022/06/27 03:31:25;;;;;;;10.43;2.42;;;;;;;;;;5050716;28;20070;-59
2022/06/27 03:33:54;;;;;;;9.35;2.63;;;;;;;;;;5052255;28;20032;-58
2022/06/27 03:36:21;;;;;;;5.72;2.28;;;;;;;;;;5051771;28;20040;-59
2022/06/27 03:38:48;;;;;;;9.82;2.80;;;;;;;;;;5052597;28;20382;-58
2022/06/27 03:41:15;;;;;;;6.68;1.92;;;;;;;;;;5051781;28;20029;-59
2022/06/27 03:43:42;;;;;;;8.70;2.70;;;;;;;;;;5052542;28;20036;-59
2022/06/27 03:46:09;;;;;;;9.85;2.22;;;;;;;;;;5051528;28;20502;-58
2022/06/27 03:51:21;;;;;;;5.15;2.30;;;;;;;;;;5052330;28;20083;-60
2022/06/27 03:53:48;;;;;;;7.72;2.30;;;;;;;;;;5051500;28;20025;-59
2022/06/27 03:56:15;;;;;;;6.18;2.10;;;;;;;;;;5052293;28;20062;-59
2022/06/27 03:58:42;;;;;;;7.22;2.17;;;;;;;;;;5051239;28;20051;-59
2022/06/27 04:01:09;;;;;;;5.72;2.10;;;;;;;;;;5052070;28;20033;-60
2022/06/27 04:03:36;;;;;;;5.63;1.88;;;;;;;;;;5052036;28;20449;-60
2022/06/27 04:06:03;;;;;;;6.43;2.05;;;;;;;;;;5051473;28;20029;-59
2022/06/27 04:08:30;;;;;;;6.85;2.10;;;;;;;;;;5051983;28;20025;-59
2022/06/27 04:10:57;;;;;;;3.67;1.80;;;;;;;;;;5051512;28;20082;-59
2022/06/27 04:13:24;;;;;;;6.80;2.13;;;;;;;;;;5051279;28;20025;-59
2022/06/27 04:15:51;;;;;;;8.60;2.47;;;;;;;;;;5051987;28;20033;-58
2022/06/27 04:18:18;;;;;;;7.03;2.00;;;;;;;;;;5051983;28;20108;-58
2022/06/27 04:20:45;;;;;;;4.85;1.88;;;;;;;;;;5051032;28;20108;-59
2022/06/27 04:23:12;;;;;;;5.00;1.92;;;;;;;;;;5052129;28;20074;-59
2022/06/27 04:25:39;;;;;;;5.10;1.98;;;;;;;;;;5051349;28;20033;-59
2022/06/27 04:28:05;;;;;;;7.03;1.92;;;;;;;;;;5051701;28;20147;-59
2022/06/27 04:30:32;;;;;;;3.75;1.60;;;;;;;;;;5051672;28;20025;-59
2022/06/27 04:33:00;;;;;;;6.32;2.15;;;;;;;;;;5050985;28;20029;-60
2022/06/27 04:35:27;;;;;;;4.72;1.90;;;;;;;;;;5051001;28;20469;-59
2022/06/27 04:37:54;;;;;;;6.25;2.15;;;;;;;;;;5051844;28;20033;-60
2022/06/27 04:40:22;;;;;;;7.03;2.35;;;;;;;;;;5051483;28;20025;-59
2022/06/27 04:42:49;;;;;;;6.47;1.88;;;;;;;;;;5054606;28;20121;-59
2022/06/27 04:45:16;;;;;;;4.70;1.85;;;;;;;;;;5055124;28;20017;-59
2022/06/27 04:47:44;;;;;;;4.72;1.77;;;;;;;;;;5054942;28;20035;-61
2022/06/27 04:50:13;;;;;;;3.63;2.00;;;;;;;;;;5055543;28;20430;-59
2022/06/27 04:52:41;;;;;;;3.60;1.60;;;;;;;;;;5055822;28;20029;-59
2022/06/27 04:55:08;;;;;;;2.92;1.55;;;;;;;;;;5054844;28;20029;-59
2022/06/27 04:57:41;;;;;;;4.07;1.88;;;;;;;;;;5055132;28;20036;-59
2022/06/27 05:00:10;;;;;;;2.65;1.52;;;;;;;;;;5055371;28;20040;-59
2022/06/27 05:02:37;;;;;;;3.70;1.60;;;;;;;;;;5055542;28;20433;-59
2022/06/27 05:05:05;;;;;;;4.30;1.55;;;;;;;;;;5054531;28;20067;-59
2022/06/27 05:07:32;;;;;;;3.55;1.60;;;;;;;;;;5055073;28;20036;-59
2022/06/27 05:09:59;;;;;;;4.47;1.50;;;;;;;;;;5055018;28;20041;-59
2022/06/27 05:12:27;;;;;;;3.63;1.67;;;;;;;;;;5054968;28;20509;-59
2022/06/27 05:14:55;;;;;;;2.92;1.65;;;;;;;;;;5054547;28;20029;-59
2022/06/27 05:17:24;;;;;;;3.17;1.67;;;;;;;;;;5055400;28;20027;-60
2022/06/27 05:19:51;;;;;;;4.05;1.85;;;;;;;;;;5054583;28;20490;-60
2022/06/27 05:22:18;;;;;;;3.78;1.85;;;;;;;;;;5055040;28;20033;-60
2022/06/27 05:24:48;;;;;;;4.05;1.35;;;;;;;;;;5054322;28;20563;-59
2022/06/27 05:27:16;;;;;;;4.28;1.58;;;;;;;;;;5054213;28;20104;-59
2022/06/27 05:29:43;;;;;;;3.50;1.52;;;;;;;;;;5054699;28;20052;-59
2022/06/27 05:32:10;;;;;;;4.43;1.58;;;;;;;;;;5054614;28;20395;-59
2022/06/27 05:34:38;;;;;;;1.90;1.20;;;;;;;;;;5054521;28;20040;-59
2022/06/27 05:37:05;;;;;;;3.45;1.50;;;;;;;;;;5053602;28;20033;-59
2022/06/27 05:39:33;;;;;;;2.83;1.50;;;;;;;;;;5054002;28;20076;-59
2022/06/27 05:42:00;;;;;;;3.45;1.45;;;;;;;;;;5054446;28;20425;-59
2022/06/27 05:44:28;;;;;;;2.53;1.33;;;;;;;;;;5054394;28;20025;-60
2022/06/27 05:46:56;;;;;;;2.55;1.45;;;;;;;;;;5054303;28;20368;-60
2022/06/27 05:49:24;;;;;;;2.85;1.33;;;;;;;;;;5053706;28;20497;-59
2022/06/27 05:51:52;;;;;;;4.07;1.30;;;;;;;;;;5054508;28;20037;-59
2022/06/27 05:54:21;;;;;;;2.50;1.20;;;;;;;;;;5053452;28;20017;-59
2022/06/27 05:56:48;;;;;;;3.53;1.50;;;;;;;;;;5053832;28;20048;-60
2022/06/27 05:59:16;;;;;;;2.60;1.50;;;;;;;;;;5054156;28;20478;-60
2022/06/27 06:01:45;;;;;;;2.83;1.20;;;;;;;;;;5053993;28;20064;-60
2022/06/27 06:04:12;;;;;;;2.65;1.20;;;;;;;;;;5054326;28;20025;-59
2022/06/27 06:06:43;;;;;;;4.55;2.03;;;;;;;;;;5053727;28;20398;-60
2022/06/27 06:09:15;;;;;;;2.72;1.20;;;;;;;;;;5053338;28;20025;-59
2022/06/27 06:11:42;;;;;;;2.92;1.20;;;;;;;;;;5053049;28;20486;-59
2022/06/27 06:14:10;;;;;;;3.05;1.15;;;;;;;;;;5053040;28;20536;-59
2022/06/27 06:16:38;;;;;;;3.65;1.30;;;;;;;;;;5052974;28;20029;-59
2022/06/27 06:19:05;;;;;;;2.00;1.30;;;;;;;;;;5053880;28;20024;-59
2022/06/27 06:21:32;;;;;;;3.03;1.08;;;;;;;;;;5053778;28;20475;-60
2022/06/27 06:23:59;;;;;;;2.88;1.02;;;;;;;;;;5053792;28;20025;-59
2022/06/27 06:26:26;;;;;;;1.80;1.00;;;;;;;;;;5053699;28;20092;-60
2022/06/27 06:28:53;;;;;;;2.00;1.05;;;;;;;;;;5052697;28;20511;-59
2022/06/27 06:31:23;;;;;;;1.95;1.27;;;;;;;;;;5053297;28;20044;-59
2022/06/27 06:33:51;;;;;;;3.45;1.45;;;;;;;;;;5053656;28;20029;-60
2022/06/27 06:36:20;;;;;;;4.60;1.40;;;;;;;;;;5053189;28;20029;-59
2022/06/27 06:38:49;;;;;;;1.88;1.10;;;;;;;;;;5053790;28;20025;-59
2022/06/27 06:41:16;;;;;;;2.20;1.00;;;;;;;;;;5052959;28;20040;-59
2022/06/27 06:43:45;;;;;;;2.78;1.30;;;;;;;;;;5053689;28;20094;-59
2022/06/27 06:46:13;;;;;;;2.05;1.35;;;;;;;;;;5182786;22;20031;-64
2022/06/27 06:48:40;;;;;;;2.35;1.30;;;;;;;;;;5047974;28;20045;-62
2022/06/27 06:51:08;;;;;;;2.22;1.00;;;;;;;;;;5052638;28;20044;-63
2022/06/27 06:53:36;;;;;;;5.07;1.20;;;;;;;;;;5053100;28;20126;-62
2022/06/27 06:56:05;;;;;;;3.30;1.23;;;;;;;;;;5052165;28;20025;-60
2022/06/27 06:58:32;;;;;;;2.08;0.98;;;;;;;;;;5052871;28;20065;-60
2022/06/27 07:00:59;;;;;;;3.72;1.38;;;;;;;;;;5052594;28;20467;-60
2022/06/27 07:03:26;;;;;;;2.90;1.00;;;;;;;;;;5052550;28;20035;-60
2022/06/27 07:05:54;;;;;;;3.28;1.23;;;;;;;;;;5052903;28;20478;-60
2022/06/27 07:08:22;;;;;;;2.60;1.00;;;;;;;;;;5052525;28;20044;-61
2022/06/27 07:10:49;;;;;;;2.97;1.02;;;;;;;;;;5052711;28;20041;-60
2022/06/27 07:13:17;;;;;;;2.97;1.20;;;;;;;;;;5052839;28;20024;-61
2022/06/27 07:15:45;;;;;;;3.00;1.00;;;;;;;;;;5052056;28;20474;-60
2022/06/27 07:18:13;;;;;;;1.75;1.00;;;;;;;;;;5052360;28;20037;-60
2022/06/27 07:20:40;;;;;;;1.63;1.00;;;;;;;;;;5052150;28;20032;-60
2022/06/27 07:23:08;;;;;;;3.92;1.10;;;;;;;;;;5052502;28;20474;-60
2022/06/27 07:25:35;;;;;;;1.92;1.08;;;;;;;;;;5052101;28;20482;-60
2022/06/27 07:28:02;;;;;;;1.98;1.05;;;;;;;;;;5052518;28;20025;-60
2022/06/27 07:30:30;;;;;;;2.30;1.00;;;;;;;;;;5051699;28;20045;-60
2022/06/27 07:32:56;;;;;;;2.03;1.02;;;;;;;;;;5052330;28;20509;-60
2022/06/27 07:35:24;;;;;;;1.60;1.00;;;;;;;;;;5052223;28;20417;-60
2022/06/27 07:37:52;;;;;;;2.13;0.93;;;;;;;;;;5051932;28;20389;-61
2022/06/27 07:40:20;;;;;;;1.52;0.93;;;;;;;;;;5052278;28;20108;-61
2022/06/27 07:42:47;;;;;;;2.58;1.00;;;;;;;;;;5051580;28;20031;-60
2022/06/27 07:45:15;;;;;;;2.00;1.02;;;;;;;;;;5052120;28;20378;-60
2022/06/27 07:47:43;;;;;;;2.25;1.00;;;;;;;;;;5051683;28;20048;-60
2022/06/27 07:50:10;;;;;;;4.30;1.00;;;;;;;;;;5052097;28;20116;-60
2022/06/27 07:55:24;;;;;;;2.22;1.05;;;;;;;;;;5051949;28;20077;-60
2022/06/27 07:57:55;;;;;;;1.30;0.80;;;;;;;;;;5051965;28;20439;-60
2022/06/27 08:00:21;;;;;;;2.03;1.05;;;;;;;;;;5052126;28;20025;-60
2022/06/27 08:02:48;;;;;;;3.03;1.00;;;;;;;;;;5051359;28;20024;-60
2022/06/27 08:05:16;;;;;;;2.03;1.15;;;;;;;;;;5034125;28;20021;-61
2022/06/27 08:07:43;;;;;;;2.40;1.00;;;;;;;;;;5051921;28;20037;-61
2022/06/27 08:10:10;;;;;;;2.75;0.80;;;;;;;;;;5051567;28;20043;-60
2022/06/27 08:12:37;;;;;;;1.27;0.95;;;;;;;;;;5051903;28;20411;-60
2022/06/27 08:15:05;;;;;;;2.70;1.10;;;;;;;;;;5051461;28;20067;-60
2022/06/27 08:17:32;;;;;;;1.23;0.90;;;;;;;;;;5051087;28;20029;-61
2022/06/27 08:19:59;;;;;;;4.68;1.25;;;;;;;;;;5051292;28;20017;-60
2022/06/27 08:22:26;;;;;;;1.10;0.75;;;;;;;;;;5051605;28;20083;-60
2022/06/27 08:24:54;;;;;;;2.45;1.00;;;;;;;;;;5051683;28;20025;-60
2022/06/27 08:27:21;;;;;;;2.15;0.90;;;;;;;;;;5051084;28;20100;-60
2022/06/27 08:29:48;;;;;;;1.58;0.80;;;;;;;;;;5033534;28;20398;-60
2022/06/27 08:32:15;;;;;;;2.05;0.90;;;;;;;;;;5051171;28;20029;-60
2022/06/27 08:34:43;;;;;;;3.35;1.10;;;;;;;;;;5051237;28;20025;-60
2022/06/27 08:37:10;;;;;;;1.00;0.80;;;;;;;;;;5051099;28;20539;-60
2022/06/27 08:39:37;;;;;;;1.90;1.05;;;;;;;;;;5051771;28;20371;-61
2022/06/27 08:42:04;;;;;;;2.33;1.10;;;;;;;;;;5050771;28;20505;-60
2022/06/27 08:44:31;;;;;;;1.67;0.80;;;;;;;;;;5051619;28;20029;-60
2022/06/27 08:46:59;;;;;;;1.20;0.70;;;;;;;;;;5050807;28;20527;-60
2022/06/27 08:49:26;;;;;;;1.95;0.90;;;;;;;;;;5050785;28;20040;-60
2022/06/27 08:51:55;;;;;;;1.63;0.80;;;;;;;;;;5051291;28;20054;-61
2022/06/27 08:54:22;;;;;;;1.48;0.80;;;;;;;;;;5050901;28;20029;-60
2022/06/27 08:56:50;;;;;;;1.85;1.05;;;;;;;;;;5051280;28;20382;-60
2022/06/27 08:59:18;;;;;;;1.10;0.70;;;;;;;;;;5050997;28;20033;-60
2022/06/27 09:01:45;;;;;;;1.83;1.10;;;;;;;;;;5051185;28;20037;-60
2022/06/27 09:04:12;;;;;;;1.10;0.80;;;;;;;;;;5050652;28;20033;-60
2022/06/27 09:06:43;;;;;;;2.92;1.13;;;;;;;;;;5050914;28;20435;-60
2022/06/27 09:09:11;;;;;;;1.30;0.80;;;;;;;;;;5051013;28;20049;-60
2022/06/27 09:11:40;;;;;;;1.55;0.80;;;;;;;;;;5051096;28;20033;-60
2022/06/27 09:14:08;;;;;;;1.80;1.02;;;;;;;;;;5050378;28;20393;-60
2022/06/27 09:16:35;;;;;;;1.58;0.88;;;;;;;;;;5050866;28;20029;-61
2022/06/27 09:19:02;;;;;;;1.10;0.80;;;;;;;;;;5051134;28;20040;-60
2022/06/27 09:21:29;;;;;;;3.55;1.00;;;;;;;;;;5050847;28;20482;-61
2022/06/27 09:24:01;;;;;;;1.27;0.80;;;;;;;;;;5033749;28;20035;-60
2022/06/27 09:26:28;;;;;;;;;;;;;;;;;;5021086;28;20041;-60
2022/06/27 09:29:08;;;;;;;2.00;1.00;;;;;;;;;;5011752;28;20390;-60
2022/06/27 09:31:38;;;;;;;4.03;0.88;;;;;;;;;;5014225;28;20069;-60
2022/06/27 09:34:15;;;;;;;2.17;0.90;;;;;;;;;;5017897;28;20466;-61
2022/06/27 09:36:50;;;;;;;1.35;0.93;;;;;;;;;;5014680;28;20038;-61
2022/06/27 09:39:29;;;;;;;3.65;0.93;;;;;;;;;;5014352;28;20033;-61
2022/06/27 09:41:58;;;;;;;1.80;1.00;;;;;;;;;;5014283;28;20029;-60
2022/06/27 09:44:30;;;;;;;1.00;0.65;;;;;;;;;;5013714;28;20025;-61
2022/06/27 09:47:16;;;;;;;2.40;1.20;;;;;;;;;;5014262;28;20096;-61
2022/06/27 09:49:44;;;;;;;2.55;0.90;;;;;;;;;;5012684;28;20415;-60
2022/06/27 09:52:13;;;;;;;2.30;0.98;;;;;;;;;;5013534;28;20026;-60
2022/06/27 09:54:41;;;;;;;1.60;1.10;;;;;;;;;;5014441;28;20388;-60
2022/06/27 09:57:09;;;;;;;3.45;0.88;;;;;;;;;;5013811;28;20100;-60
2022/06/27 09:59:37;;;;;;;1.98;1.02;;;;;;;;;;5014369;28;20108;-60
2022/06/27 10:02:05;;;;;;;4.05;0.82;;;;;;;;;;5014499;28;20028;-61
2022/06/27 10:04:37;;;;;;;1.70;0.80;;;;;;;;;;5029471;28;20028;-61
2022/06/27 10:07:10;;;;;;;2.05;0.90;;;;;;;;;;5045072;28;20025;-61
2022/06/27 10:09:41;;;;;;;4.10;0.77;;;;;;;;;;5053408;28;20040;-60
2022/06/27 10:12:25;;;;;;;3.63;0.80;;;;;;;;;;5048644;28;20045;-60
2022/06/27 10:15:10;;;;;;;1.77;0.80;;;;;;;;;;5047883;28;20430;-60
2022/06/27 10:17:44;;;;;;;1.95;0.90;;;;;;;;;;5041234;28;20506;-60
2022/06/27 10:20:15;;;;;;;2.83;0.80;;;;;;;;;;5033790;28;20022;-60
2022/06/27 10:22:42;;;;;;;2.22;0.88;;;;;;;;;;5032924;28;20065;-60
2022/06/27 10:25:27;;;;;;;0.90;0.80;;;;;;;;;;5033625;28;20034;-60
2022/06/27 10:30:41;;;;;;;1.48;0.90;;;;;;;;;;5025412;28;20041;-60
2022/06/27 10:33:26;;;;;;;1.00;0.70;;;;;;;;;;5030529;28;20087;-60
2022/06/27 10:38:28;;;;;;;3.72;0.98;;;;;;;;;;5012698;28;20030;-60
2022/06/27 10:40:55;;;;;;;3.80;0.95;;;;;;;;;;5021258;28;20036;-61
2022/06/27 10:43:37;;;;;;;1.85;1.00;;;;;;;;;;5011756;28;20036;-59
2022/06/27 10:46:13;;;;;;;2.35;1.10;;;;;;;;;;5012494;28;20480;-59
2022/06/27 10:48:46;;;;;;;3.03;0.73;;;;;;;;;;5012965;28;20133;-60
2022/06/27 10:51:27;;;;;;;6.03;1.20;;;;;;;;;;5024501;28;20037;-60
2022/06/27 10:54:00;;;;;;;4.85;0.90;;;;;;;;;;5031898;28;20433;-61
2022/06/27 10:56:30;;;;;;;2.33;0.85;;;;;;;;;;5032059;28;20029;-61
2022/06/27 10:58:57;;;;;;;4.40;1.02;;;;;;;;;;5031279;28;20105;-61
2022/06/27 11:01:24;;;;;;;0.98;0.80;;;;;;;;;;5030006;28;20022;-60
2022/06/27 11:03:52;;;;;;;4.93;1.05;;;;;;;;;;5020966;28;20029;-59
2022/06/27 11:06:19;;;;;;;2.72;0.85;;;;;;;;;;5026319;28;20025;-59
2022/06/27 11:08:47;;;;;;;3.22;0.73;;;;;;;;;;5032021;28;20025;-59
2022/06/27 11:11:18;;;;;;;2.20;1.00;;;;;;;;;;5030278;28;20566;-59
2022/06/27 11:13:49;;;;;;;3.05;0.90;;;;;;;;;;5021330;28;20109;-59
2022/06/27 11:16:23;;;;;;;4.10;1.00;;;;;;;;;;5015618;28;20468;-61
2022/06/27 11:18:54;;;;;;;2.47;0.90;;;;;;;;;;5012372;28;20030;-60
2022/06/27 11:21:22;;;;;;;4.22;1.02;;;;;;;;;;5010443;28;20372;-60
2022/06/27 11:23:50;;;;;;;4.70;0.85;;;;;;;;;;5011376;28;20072;-60
2022/06/27 11:26:17;;;;;;;9.55;1.00;;;;;;;;;;5011389;28;20397;-60
2022/06/27 11:34:15;;;;;;;2.80;1.00;;;;;;;;;;5011241;28;20045;-59
2022/06/27 11:36:43;;;;;;;3.70;0.82;;;;;;;;;;5013653;28;20493;-60
2022/06/27 11:39:11;;;;;;;3.88;0.95;;;;;;;;;;5029558;28;20407;-60
2022/06/27 11:41:41;;;;;;;3.72;0.80;;;;;;;;;;5031186;28;20061;-59
2022/06/27 11:44:10;;;;;;;6.38;1.00;;;;;;;;;;5013535;28;20033;-59
2022/06/27 11:46:45;;;;;;;2.67;0.80;;;;;;;;;;5031173;28;20049;-59
2022/06/27 11:49:13;;;;;;;3.75;1.00;;;;;;;;;;5030512;28;20044;-60
2022/06/27 11:51:50;;;;;;;2.78;1.00;;;;;;;;;;5030196;28;20027;-59
2022/06/27 11:54:20;;;;;;;2.88;0.85;;;;;;;;;;5029994;28;20037;-60
2022/06/27 11:56:48;;;;;;;2.95;1.42;;;;;;;;;;5024899;28;20484;-60
2022/06/27 11:59:16;;;;;;;5.03;1.23;;;;;;;;;;5025333;28;20393;-60
2022/06/27 12:01:53;;;;;;;2.30;1.40;;;;;;;;;;5031334;28;20515;-59
2022/06/27 12:04:21;;;;;;;2.20;0.90;;;;;;;;;;5028099;28;20116;-60
2022/06/27 12:06:53;;;;;;;4.22;1.10;;;;;;;;;;5029749;28;20163;-60
2022/06/27 12:09:21;;;;;;;4.28;0.98;;;;;;;;;;5031301;28;20037;-60
2022/06/27 12:11:52;;;;;;;3.70;0.90;;;;;;;;;;5030460;28;20029;-59
2022/06/27 12:14:22;;;;;;;3.83;1.20;;;;;;;;;;5030850;28;20046;-60
2022/06/27 12:16:51;;;;;;;4.38;1.20;;;;;;;;;;5030028;28;20029;-60
2022/06/27 12:19:17;;;;;;;3.60;1.00;;;;;;;;;;5030144;28;20132;-60
2022/06/27 12:21:45;;;;;;;2.85;1.00;;;;;;;;;;5018491;28;20033;-60
2022/06/27 12:24:13;;;;;;;2.42;0.90;;;;;;;;;;5011398;28;20113;-60
2022/06/27 12:26:40;;;;;;;3.17;1.00;;;;;;;;;;5011182;28;20045;-60
2022/06/27 12:29:07;;;;;;;4.18;1.08;;;;;;;;;;5011188;28;20030;-60
2022/06/27 12:31:35;;;;;;;8.10;1.45;;;;;;;;;;5011057;28;20487;-60
2022/06/27 12:34:02;;;;;;;11.18;1.30;;;;;;;;;;5011381;28;20061;-59
2022/06/27 12:36:31;;;;;;;9.23;1.50;;;;;;;;;;5011363;28;20114;-60
2022/06/27 12:39:01;;;;;;;11.15;1.80;;;;;;;;;;5010994;28;20396;-59
2022/06/27 12:41:29;;;;;;;12.73;2.05;;;;;;;;;;5011607;28;20029;-60
2022/06/27 12:43:57;;;;;;;6.53;1.73;;;;;;;;;;5010756;28;20030;-60
2022/06/27 12:46:25;;;;;;;8.07;1.52;;;;;;;;;;5018212;28;20037;-60
2022/06/27 12:48:53;;;;;;;12.38;1.90;;;;;;;;;;5011273;28;20040;-60
2022/06/27 12:51:20;;;;;;;15.27;2.13;;;;;;;;;;5010429;28;20054;-60
2022/06/27 12:53:47;;;;;;;18.77;2.08;;;;;;;;;;5011378;28;20033;-59
2022/06/27 12:56:15;;;;;;;15.68;2.15;;;;;;;;;;5011120;28;20030;-60
2022/06/27 12:58:42;;;;;;;14.35;2.03;;;;;;;;;;5010917;28;20029;-60
2022/06/27 13:01:09;;;;;;;12.48;1.90;;;;;;;;;;5011048;28;20099;-59
2022/06/27 13:03:36;;;;;;;14.02;2.08;;;;;;;;;;5013475;28;20033;-61
2022/06/27 13:06:03;;;;;;;14.05;2.00;;;;;;;;;;5023846;28;20101;-60
2022/06/27 13:08:30;;;;;;;13.30;1.90;;;;;;;;;;5033038;28;20111;-60
2022/06/27 13:10:57;;;;;;;13.38;2.15;;;;;;;;;;5033353;28;20041;-60
2022/06/27 13:13:23;;;;;;;9.82;1.80;;;;;;;;;;5033682;28;20033;-59
2022/06/27 13:15:50;;;;;;;17.23;2.28;;;;;;;;;;5033183;28;20025;-60
2022/06/27 13:18:17;;;;;;;11.32;2.10;;;;;;;;;;5033954;28;20029;-60
2022/06/27 13:20:44;;;;;;;12.50;2.13;;;;;;;;;;5033485;28;20021;-60
2022/06/27 13:23:12;;;;;;;19.00;2.50;;;;;;;;;;5034048;28;20534;-59
2022/06/27 13:25:39;;;;;;;7.70;2.05;;;;;;;;;;5033287;28;20104;-60
2022/06/27 13:28:06;;;;;;;15.48;1.92;;;;;;;;;;5033869;28;20029;-59
2022/06/27 13:30:34;;;;;;;10.77;2.10;;;;;;;;;;5033439;28;20029;-60
2022/06/27 13:33:02;;;;;;;11.20;2.20;;;;;;;;;;5033660;28;20483;-59
2022/06/27 13:35:29;;;;;;;11.23;2.03;;;;;;;;;;5033370;28;20034;-60
2022/06/27 13:37:57;;;;;;;9.00;1.85;;;;;;;;;;5033336;28;20034;-60
2022/06/27 13:40:24;;;;;;;6.28;1.70;;;;;;;;;;5033672;28;20034;-59
2022/06/27 13:42:51;;;;;;;11.43;2.15;;;;;;;;;;5032745;28;20025;-61
2022/06/27 13:45:18;;;;;;;8.73;1.70;;;;;;;;;;5032785;28;20471;-60
2022/06/27 13:47:45;;;;;;;12.50;2.05;;;;;;;;;;5032528;28;20100;-60
2022/06/27 13:50:12;;;;;;;6.80;1.92;;;;;;;;;;5033323;28;20029;-60
2022/06/27 13:52:39;;;;;;;11.50;2.03;;;;;;;;;;5032898;28;20026;-60
2022/06/27 13:55:06;;;;;;;7.07;1.83;;;;;;;;;;5033285;28;20036;-60
2022/06/27 13:57:34;;;;;;;7.28;1.70;;;;;;;;;;5032563;28;20071;-61
2022/06/27 14:00:01;;;;;;;10.27;2.30;;;;;;;;;;5014585;28;20368;-61
2022/06/27 14:02:28;;;;;;;9.55;1.98;;;;;;;;;;5032361;28;20052;-60
2022/06/27 14:04:55;;;;;;;9.00;1.95;;;;;;;;;;5032376;28;20033;-61
2022/06/27 14:07:43;;;;;;;7.30;1.70;;;;;;;;;;5029198;28;20510;-60
2022/06/27 14:10:11;;;;;;;9.65;1.75;;;;;;;;;;5031547;28;20376;-61
2022/06/27 14:12:39;;;;;;;14.35;2.90;;;;;;;;;;5020977;28;20026;-62
2022/06/27 14:15:07;;;;;;;31.95;3.17;;;;;;;;;;5010976;28;20498;-59
2022/06/27 14:17:34;;;;;;;11.45;1.88;;;;;;;;;;5012244;28;20022;-61
2022/06/27 14:20:01;;;;;;;13.43;2.28;;;;;;;;;;5011730;28;20026;-61
2022/06/27 14:22:29;;;;;;;10.85;1.83;;;;;;;;;;5012097;28;20057;-61
2022/06/27 14:24:56;;;;;;;9.18;2.42;;;;;;;;;;5009584;28;20560;-60
2022/06/27 14:27:23;;;;;;;10.27;2.08;;;;;;;;;;5011213;28;20037;-61
2022/06/27 14:29:50;;;;;;;12.38;2.30;;;;;;;;;;5011853;28;20800;-60
2022/06/27 14:32:17;;;;;;;7.85;1.90;;;;;;;;;;5011985;28;20053;-61
2022/06/27 14:34:44;;;;;;;7.80;1.67;;;;;;;;;;5011282;28;20033;-62
2022/06/27 14:37:11;;;;;;;8.35;2.08;;;;;;;;;;5011292;28;20022;-60
2022/06/27 14:39:38;;;;;;;13.13;1.90;;;;;;;;;;5012253;28;20076;-61
2022/06/27 14:42:05;;;;;;;12.68;2.08;;;;;;;;;;5011458;28;20384;-61
2022/06/27 14:44:34;;;;;;;8.43;1.70;;;;;;;;;;5010885;28;20032;-60
2022/06/27 14:47:07;;;;;;;9.07;1.98;;;;;;;;;;5013667;28;20060;-59
2022/06/27 14:49:35;;;;;;;13.90;2.25;;;;;;;;;;5011906;28;20034;-61
2022/06/27 14:52:02;;;;;;;18.65;2.65;;;;;;;;;;5021322;28;20026;-61
2022/06/27 14:54:29;;;;;;;21.63;3.20;;;;;;;;;;5018985;28;20026;-60
2022/06/27 14:56:58;;;;;;;24.48;3.70;;;;;;;;;;5010737;28;20480;-61
2022/06/27 14:59:26;;;;;;;21.42;4.30;;;;;;;;;;5011772;28;20635;-60
2022/06/27 15:01:53;;;;;;;22.05;3.72;;;;;;;;;;5012520;28;20491;-61